EDDH/HAM METAR and TAF weather

Enter ICAO airport designator
Station Type Date Time Source
EDDH METAR 2021/09/25 13:20 UTC NOAA

EDDH 251320Z 28007KT 230V300 9999 FEW018 SCT048 20/16 Q1015 NOSIG


Station Type Date Time Source
EDDH Decoded METAR 2021/09/25 13:20 UTC NOAA

Hamburg-Fuhlsbuettel, Germany (EDDH) 53-38N 010-00E 15M
Sep 25, 2021 - 09:20 AM EDT / 2021.09.25 1320 UTC
Wind: from the W (280 degrees) at 8 MPH (7 KT) (direction variable):0
Visibility: greater than 7 mile(s):0
Sky conditions: partly cloudy
Temperature: 68 F (20 C)
Dew Point: 60 F (16 C)
Relative Humidity: 77%
Pressure (altimeter): 29.97 in. Hg (1015 hPa)
ob: EDDH 251320Z 28007KT 230V300 9999 FEW018 SCT048 20/16 Q1015 NOSIG
cycle: 13

Station Type Date Time Source
EDDH TAF 2021/09/25 12:27 UTC NOAA

TAF EDDH 251100Z 2512/2618 27008KT 9999 BKN020 PROB30
TEMPO 2512/2513 BKN012
BECMG 2515/2517 VRB03KT
TEMPO 2522/2606 2500 BR BKN003 PROB30
TEMPO 2523/2605 0700 FG
BECMG 2605/2607 12005KT
TEMPO 2606/2608 BKN005

Example: see airport list